createdAt,value
2022-08-31T00:01:44.093Z,2.50
2022-08-31T00:04:13.284Z,1.95
2022-08-31T00:06:41.279Z,1.83
2022-08-31T00:09:09.346Z,2.40
2022-08-31T00:11:38.024Z,2.37
2022-08-31T00:14:09.896Z,2.00
2022-08-31T00:16:45.836Z,2.22
2022-08-31T00:19:13.961Z,2.12
2022-08-31T00:21:42.119Z,2.62
2022-08-31T00:24:14.266Z,2.20
2022-08-31T00:26:43.014Z,2.08
2022-08-31T00:29:11.147Z,2.45
2022-08-31T00:31:39.143Z,2.37
2022-08-31T00:34:09.056Z,1.60
2022-08-31T00:36:37.001Z,2.12
2022-08-31T00:39:07.327Z,2.47
2022-08-31T00:41:38.906Z,2.30
2022-08-31T00:44:08.904Z,1.98
2022-08-31T00:46:41.419Z,2.53
2022-08-31T00:49:14.877Z,1.90
2022-08-31T00:51:48.312Z,1.87
2022-08-31T00:54:19.133Z,1.77
2022-08-31T00:56:48.009Z,1.73
2022-08-31T00:59:18.855Z,1.48
2022-08-31T01:01:47.089Z,1.77
2022-08-31T01:04:17.160Z,1.50
2022-08-31T01:06:47.080Z,1.50
2022-08-31T01:09:15.576Z,1.37
2022-08-31T01:11:45.012Z,1.85
2022-08-31T01:14:13.192Z,1.87
2022-08-31T01:16:46.150Z,1.77
2022-08-31T01:19:25.682Z,2.00
2022-08-31T01:22:02.962Z,1.80
2022-08-31T01:24:35.225Z,1.42
2022-08-31T01:27:04.880Z,2.10
2022-08-31T01:29:33.345Z,1.65
2022-08-31T01:32:02.377Z,2.25
2022-08-31T01:34:30.709Z,1.90
2022-08-31T01:36:58.714Z,2.10
2022-08-31T01:39:27.275Z,1.80
2022-08-31T01:41:56.797Z,1.85
2022-08-31T01:44:27.660Z,1.75
2022-08-31T01:46:58.790Z,1.95
2022-08-31T01:49:27.914Z,1.48
2022-08-31T01:51:56.608Z,1.48
2022-08-31T01:54:26.657Z,1.37
2022-08-31T01:56:55.708Z,1.85
2022-08-31T01:59:26.225Z,1.65
2022-08-31T02:01:56.171Z,1.75
2022-08-31T02:04:27.116Z,1.25
2022-08-31T02:06:57.970Z,1.73
2022-08-31T02:09:26.455Z,1.23
2022-08-31T02:11:54.630Z,1.65
2022-08-31T02:14:23.001Z,1.42
2022-08-31T02:16:53.024Z,1.30
2022-08-31T02:19:21.212Z,1.50
2022-08-31T02:21:49.173Z,1.30
2022-08-31T02:24:18.149Z,1.20
2022-08-31T02:26:48.492Z,1.08
2022-08-31T02:29:19.818Z,1.60
2022-08-31T02:31:48.063Z,1.37
2022-08-31T02:34:18.134Z,1.65
2022-08-31T02:36:46.352Z,1.12
2022-08-31T02:39:15.058Z,1.30
2022-08-31T02:41:43.092Z,1.30
2022-08-31T02:44:11.186Z,1.12
2022-08-31T02:46:39.450Z,1.12
2022-08-31T02:49:09.980Z,1.23
2022-08-31T02:51:41.757Z,1.00
2022-08-31T02:54:10.722Z,1.05
2022-08-31T02:56:38.735Z,1.40
2022-08-31T02:59:08.301Z,1.17
2022-08-31T03:01:37.321Z,1.60
2022-08-31T03:04:05.664Z,1.33
2022-08-31T03:06:33.585Z,1.20
2022-08-31T03:09:03.792Z,1.45
2022-08-31T03:11:31.795Z,1.05
2022-08-31T03:14:00.913Z,1.23
2022-08-31T03:16:29.995Z,1.42
2022-08-31T03:18:58.456Z,1.42
2022-08-31T03:21:26.775Z,1.30
2022-08-31T03:23:55.863Z,1.05
2022-08-31T03:26:25.364Z,1.42
2022-08-31T03:28:55.849Z,0.98
2022-08-31T03:31:26.591Z,1.10
2022-08-31T03:33:55.313Z,1.10
2022-08-31T03:36:23.286Z,1.42
2022-08-31T03:38:51.506Z,1.23
2022-08-31T03:41:24.286Z,1.60
2022-08-31T03:43:54.516Z,1.00
2022-08-31T03:46:23.916Z,1.10
2022-08-31T03:48:52.072Z,1.20
2022-08-31T03:51:20.306Z,1.30
2022-08-31T03:53:48.774Z,1.23
2022-08-31T03:56:17.894Z,1.20
2022-08-31T03:58:46.134Z,1.27
2022-08-31T04:01:25.565Z,1.40
2022-08-31T04:03:55.251Z,1.30
2022-08-31T04:06:27.129Z,1.40
2022-08-31T04:09:03.111Z,1.08
2022-08-31T04:11:40.530Z,1.15
2022-08-31T04:14:18.366Z,1.20
2022-08-31T04:16:50.083Z,1.20
2022-08-31T04:19:20.115Z,1.50
2022-08-31T04:21:50.069Z,1.10
2022-08-31T04:24:18.174Z,1.52
2022-08-31T04:26:52.983Z,1.05
2022-08-31T04:29:21.244Z,1.10
2022-08-31T04:31:50.868Z,1.12
2022-08-31T04:34:19.188Z,1.15
2022-08-31T04:36:47.220Z,1.05
2022-08-31T04:39:16.252Z,1.70
2022-08-31T04:41:45.019Z,0.93
2022-08-31T04:44:17.765Z,1.02
2022-08-31T04:46:49.883Z,1.23
2022-08-31T04:49:17.962Z,0.95
2022-08-31T04:51:47.363Z,0.88
2022-08-31T04:54:15.327Z,0.77
2022-08-31T04:56:46.164Z,1.05
2022-08-31T04:59:17.944Z,0.98
2022-08-31T05:01:47.036Z,0.73
2022-08-31T05:04:17.972Z,0.90
2022-08-31T05:06:47.494Z,1.00
2022-08-31T05:09:19.039Z,1.02
2022-08-31T05:11:50.001Z,0.80
2022-08-31T05:14:18.812Z,0.80
2022-08-31T05:16:47.910Z,1.12
2022-08-31T05:19:15.911Z,0.65
2022-08-31T05:21:46.297Z,1.00
2022-08-31T05:24:16.238Z,0.70
2022-08-31T05:26:49.108Z,0.93
2022-08-31T05:29:19.456Z,0.90
2022-08-31T05:31:52.174Z,0.98
2022-08-31T05:34:22.190Z,0.93
2022-08-31T05:36:55.280Z,0.82
2022-08-31T05:39:23.996Z,0.73
2022-08-31T05:41:52.355Z,1.10
2022-08-31T05:44:21.295Z,1.00
2022-08-31T05:46:52.227Z,1.15
2022-08-31T05:49:27.916Z,0.82
2022-08-31T05:51:59.058Z,0.75
2022-08-31T05:54:27.522Z,0.77
2022-08-31T05:57:01.072Z,0.80
2022-08-31T05:59:31.943Z,0.77
2022-08-31T06:02:01.803Z,1.30
2022-08-31T06:04:30.252Z,0.80
2022-08-31T06:06:59.508Z,0.82
2022-08-31T06:09:27.989Z,0.80
2022-08-31T06:11:57.114Z,0.55
2022-08-31T06:14:25.054Z,0.95
2022-08-31T06:16:55.473Z,0.65
2022-08-31T06:19:24.057Z,0.90
2022-08-31T06:21:52.223Z,0.95
2022-08-31T06:24:22.611Z,0.60
2022-08-31T06:26:58.284Z,0.75
2022-08-31T06:29:28.025Z,0.70
2022-08-31T06:31:56.507Z,1.08
2022-08-31T06:34:26.824Z,0.57
2022-08-31T06:36:55.790Z,0.75
2022-08-31T06:39:29.227Z,1.00
2022-08-31T06:41:57.264Z,0.80
2022-08-31T06:44:26.290Z,0.60
2022-08-31T06:46:56.016Z,0.80
2022-08-31T06:49:24.402Z,0.73
2022-08-31T06:51:52.599Z,0.50
2022-08-31T06:54:29.357Z,1.02
2022-08-31T06:57:05.224Z,0.65
2022-08-31T06:59:34.271Z,0.55
2022-08-31T07:02:04.883Z,0.90
2022-08-31T07:04:35.027Z,0.77
2022-08-31T07:07:05.291Z,0.82
2022-08-31T07:09:33.834Z,0.82
2022-08-31T07:12:01.841Z,0.75
2022-08-31T07:14:31.454Z,0.85
2022-08-31T07:17:02.952Z,0.73
2022-08-31T07:19:32.387Z,0.80
2022-08-31T07:22:02.510Z,0.88
2022-08-31T07:24:35.147Z,0.60
2022-08-31T07:27:05.695Z,0.80
2022-08-31T07:29:40.453Z,0.70
2022-08-31T07:32:12.736Z,0.90
2022-08-31T07:34:41.604Z,0.70
2022-08-31T07:37:29.223Z,0.90
2022-08-31T07:40:15.210Z,0.80
2022-08-31T07:42:46.811Z,0.88
2022-08-31T07:45:22.482Z,0.70
2022-08-31T07:47:52.286Z,0.75
2022-08-31T07:50:22.704Z,0.80
2022-08-31T07:52:54.889Z,0.80
2022-08-31T07:55:30.127Z,0.60
2022-08-31T07:57:59.714Z,0.60
2022-08-31T08:00:33.066Z,0.80
2022-08-31T08:03:07.757Z,0.60
2022-08-31T08:05:38.849Z,0.70
2022-08-31T08:08:13.613Z,0.80
2022-08-31T08:10:51.881Z,0.70
2022-08-31T08:13:23.184Z,0.52
2022-08-31T08:15:53.091Z,0.40
2022-08-31T08:18:21.499Z,0.40
2022-08-31T08:20:52.449Z,0.50
2022-08-31T08:23:27.984Z,0.40
2022-08-31T08:26:01.726Z,0.75
2022-08-31T08:28:40.171Z,0.68
2022-08-31T08:31:15.440Z,0.77
2022-08-31T08:33:45.086Z,0.70
2022-08-31T08:36:18.256Z,0.40
2022-08-31T08:38:48.802Z,0.85
2022-08-31T08:41:20.085Z,0.60
2022-08-31T08:43:52.754Z,0.50
2022-08-31T08:46:37.630Z,0.62
2022-08-31T08:49:16.344Z,0.40
2022-08-31T08:51:48.490Z,0.55
2022-08-31T08:54:27.606Z,0.40
2022-08-31T08:56:57.932Z,0.40
2022-08-31T08:59:28.591Z,0.50
2022-08-31T09:02:06.415Z,0.50
2022-08-31T09:04:50.852Z,0.50
2022-08-31T09:07:42.394Z,0.55
2022-08-31T09:10:19.153Z,0.40
2022-08-31T09:12:58.147Z,0.45
2022-08-31T09:15:40.883Z,0.40
2022-08-31T09:18:38.720Z,0.47
2022-08-31T09:21:22.039Z,0.47
2022-08-31T09:24:01.536Z,0.47
2022-08-31T09:26:35.695Z,0.50
2022-08-31T09:29:05.630Z,0.30
2022-08-31T09:31:38.095Z,0.50
2022-08-31T09:34:12.580Z,0.30
2022-08-31T09:36:41.821Z,0.30
2022-08-31T09:39:22.003Z,0.60
2022-08-31T09:41:51.053Z,0.32
2022-08-31T09:44:33.957Z,0.50
2022-08-31T09:47:05.424Z,0.40
2022-08-31T09:49:37.708Z,0.45
2022-08-31T09:52:21.251Z,0.40
2022-08-31T09:55:14.468Z,0.50
2022-08-31T09:57:54.328Z,0.20
2022-08-31T10:00:32.456Z,0.43
2022-08-31T10:03:09.679Z,0.50
2022-08-31T10:05:42.540Z,0.50
2022-08-31T10:08:28.844Z,0.70
2022-08-31T10:10:59.461Z,0.40
2022-08-31T10:13:37.061Z,0.40
2022-08-31T10:16:14.611Z,0.70
2022-08-31T10:18:55.482Z,0.62
2022-08-31T10:21:35.315Z,0.40
2022-08-31T10:24:20.494Z,0.50
2022-08-31T10:26:53.983Z,0.68
2022-08-31T10:29:32.544Z,0.40
2022-08-31T10:32:06.007Z,0.57
2022-08-31T10:35:07.059Z,0.35
2022-08-31T10:37:44.660Z,0.55
2022-08-31T10:40:18.230Z,0.50
2022-08-31T10:42:57.592Z,0.50
2022-08-31T10:45:29.848Z,0.60
2022-08-31T10:47:58.616Z,0.57
2022-08-31T10:50:34.062Z,0.50
2022-08-31T10:53:15.495Z,0.60
2022-08-31T10:55:52.238Z,0.60
2022-08-31T10:58:31.178Z,0.60
2022-08-31T11:01:09.108Z,0.70
2022-08-31T11:03:51.816Z,0.65
2022-08-31T11:06:28.814Z,0.80
2022-08-31T11:09:06.208Z,0.62
2022-08-31T11:11:42.411Z,0.50
2022-08-31T11:14:29.613Z,0.60
2022-08-31T11:17:13.669Z,0.60
2022-08-31T11:20:00.055Z,0.77
2022-08-31T11:22:47.076Z,0.60
2022-08-31T11:25:33.182Z,0.47
2022-08-31T11:28:07.056Z,0.55
2022-08-31T11:30:41.887Z,0.52
2022-08-31T11:33:20.320Z,0.70
2022-08-31T11:36:05.474Z,0.50
2022-08-31T11:39:15.147Z,0.65
2022-08-31T11:41:46.725Z,0.50
2022-08-31T11:44:52.146Z,0.52
2022-08-31T11:47:35.609Z,0.77
2022-08-31T11:50:10.842Z,0.60
2022-08-31T11:52:43.053Z,0.40
2022-08-31T11:55:25.688Z,0.70
2022-08-31T11:58:21.245Z,0.60
2022-08-31T12:00:54.048Z,0.50
2022-08-31T12:03:44.496Z,0.43
2022-08-31T12:06:52.897Z,0.50
2022-08-31T12:09:42.899Z,0.45
2022-08-31T12:12:21.732Z,0.57
2022-08-31T12:14:57.960Z,0.60
2022-08-31T12:17:30.866Z,0.50
2022-08-31T12:20:07.199Z,0.43
2022-08-31T12:23:29.833Z,0.40
2022-08-31T12:26:12.588Z,0.52
2022-08-31T12:28:55.873Z,0.62
2022-08-31T12:31:24.358Z,0.40
2022-08-31T12:33:58.994Z,0.50
2022-08-31T12:36:29.959Z,0.40
2022-08-31T12:39:10.696Z,0.50
2022-08-31T12:41:43.771Z,0.60
2022-08-31T12:44:13.978Z,0.60
2022-08-31T12:47:02.443Z,0.40
2022-08-31T12:49:57.837Z,0.37
2022-08-31T12:52:41.751Z,0.40
2022-08-31T12:55:28.230Z,0.40
2022-08-31T12:58:21.971Z,0.47
2022-08-31T13:00:50.955Z,0.40
2022-08-31T13:03:22.300Z,0.52
2022-08-31T13:06:08.161Z,0.35
2022-08-31T13:08:40.579Z,0.50
2022-08-31T13:11:22.768Z,0.40
2022-08-31T13:13:54.439Z,0.40
2022-08-31T13:16:22.872Z,0.40
2022-08-31T13:19:02.910Z,0.32
2022-08-31T13:21:31.469Z,0.22
2022-08-31T13:24:07.301Z,0.20
2022-08-31T13:26:38.032Z,0.30
2022-08-31T13:29:10.097Z,0.40
2022-08-31T13:31:49.729Z,0.30
2022-08-31T13:34:19.111Z,0.30
2022-08-31T13:36:52.506Z,0.30
2022-08-31T13:39:26.679Z,0.40
2022-08-31T13:41:58.519Z,0.30
2022-08-31T13:44:33.683Z,0.30
2022-08-31T13:47:03.812Z,0.30
2022-08-31T13:49:36.273Z,0.40
2022-08-31T13:52:07.571Z,0.28
2022-08-31T13:54:37.055Z,0.45
2022-08-31T13:57:28.383Z,0.30
2022-08-31T14:00:29.282Z,0.50
2022-08-31T14:03:01.712Z,0.32
2022-08-31T14:05:33.371Z,0.40
2022-08-31T14:08:03.993Z,0.30
2022-08-31T14:10:36.190Z,0.30
2022-08-31T14:13:14.172Z,0.20
2022-08-31T14:15:52.095Z,0.40
2022-08-31T14:18:25.995Z,0.35
2022-08-31T14:21:21.534Z,0.40
2022-08-31T14:23:53.087Z,0.30
2022-08-31T14:26:22.825Z,0.30
2022-08-31T14:28:53.548Z,0.30
2022-08-31T14:31:26.912Z,0.30
2022-08-31T14:34:08.145Z,0.40
2022-08-31T14:36:52.882Z,0.30
2022-08-31T14:39:24.287Z,0.20
2022-08-31T14:41:54.618Z,0.40
2022-08-31T14:44:26.722Z,0.10
2022-08-31T14:46:56.211Z,0.40
2022-08-31T14:49:25.046Z,0.30
2022-08-31T14:51:53.288Z,0.25
2022-08-31T14:54:21.241Z,0.37
2022-08-31T14:56:51.895Z,0.20
2022-08-31T14:59:21.781Z,0.20
2022-08-31T15:01:50.964Z,0.20
2022-08-31T15:04:21.848Z,0.30
2022-08-31T15:06:54.850Z,0.40
2022-08-31T15:09:23.232Z,0.43
2022-08-31T15:11:51.403Z,0.30
2022-08-31T15:14:19.395Z,0.40
2022-08-31T15:16:50.794Z,0.20
2022-08-31T15:19:23.039Z,0.20
2022-08-31T15:21:58.584Z,0.28
2022-08-31T15:24:30.817Z,0.37
2022-08-31T15:26:59.615Z,0.37
2022-08-31T15:29:29.038Z,0.30
2022-08-31T15:31:58.970Z,0.22
2022-08-31T15:34:31.056Z,0.20
2022-08-31T15:37:02.195Z,0.37
2022-08-31T15:39:34.975Z,0.32
2022-08-31T15:42:09.303Z,0.50
2022-08-31T15:44:37.775Z,0.30
2022-08-31T15:47:24.882Z,0.50
2022-08-31T15:49:56.132Z,0.30
2022-08-31T15:52:27.785Z,0.40
2022-08-31T15:54:57.114Z,0.30
2022-08-31T15:57:25.343Z,0.50
2022-08-31T15:59:53.314Z,0.30
2022-08-31T16:02:21.675Z,0.13
2022-08-31T16:04:51.379Z,0.30
2022-08-31T16:07:23.113Z,0.30
2022-08-31T16:09:51.332Z,0.30
2022-08-31T16:12:22.377Z,0.30
2022-08-31T16:14:51.765Z,0.40
2022-08-31T16:17:20.140Z,0.30
2022-08-31T16:19:48.672Z,0.40
2022-08-31T16:22:18.398Z,0.52
2022-08-31T16:24:49.005Z,0.70
2022-08-31T16:27:19.026Z,0.50
2022-08-31T16:29:50.716Z,0.40
2022-08-31T16:32:18.915Z,0.50
2022-08-31T16:34:46.893Z,0.30
2022-08-31T16:37:15.146Z,0.30
2022-08-31T16:39:46.962Z,0.25
2022-08-31T16:42:17.586Z,0.30
2022-08-31T16:44:47.882Z,0.40
2022-08-31T16:47:18.652Z,0.50
2022-08-31T16:49:45.787Z,0.40
2022-08-31T16:52:18.163Z,0.30
2022-08-31T16:54:49.117Z,0.40
2022-08-31T16:57:20.749Z,0.30
2022-08-31T16:59:50.395Z,0.20
2022-08-31T17:02:20.003Z,0.40
2022-08-31T17:04:52.635Z,0.30
2022-08-31T17:07:22.562Z,0.25
2022-08-31T17:09:50.994Z,0.20
2022-08-31T17:12:26.210Z,0.37
2022-08-31T17:14:55.951Z,0.35
2022-08-31T17:17:26.459Z,0.40
2022-08-31T17:19:56.401Z,0.40
2022-08-31T17:22:31.692Z,0.37
2022-08-31T17:25:03.102Z,0.40
2022-08-31T17:27:34.301Z,0.30
2022-08-31T17:30:07.198Z,0.40
2022-08-31T17:32:45.237Z,0.32
2022-08-31T17:35:18.231Z,0.70
2022-08-31T17:37:48.193Z,0.40
2022-08-31T17:40:16.787Z,0.40
2022-08-31T17:42:48.571Z,0.50
2022-08-31T17:45:17.578Z,0.60
2022-08-31T17:47:45.723Z,0.30
2022-08-31T17:50:17.205Z,0.45
2022-08-31T17:52:47.336Z,0.50
2022-08-31T17:55:15.613Z,0.30
2022-08-31T17:57:44.410Z,0.32
2022-08-31T18:00:15.961Z,0.43
2022-08-31T18:02:44.726Z,0.35
2022-08-31T18:05:16.193Z,0.40
2022-08-31T18:07:44.486Z,0.50
2022-08-31T18:10:13.089Z,0.45
2022-08-31T18:12:42.201Z,0.50
2022-08-31T18:15:14.369Z,0.40
2022-08-31T18:17:45.409Z,0.43
2022-08-31T18:20:14.139Z,0.30
2022-08-31T18:22:42.452Z,0.20
2022-08-31T18:25:11.844Z,0.47
2022-08-31T18:27:40.551Z,0.30
2022-08-31T18:30:15.408Z,0.30
2022-08-31T18:32:47.434Z,0.30
2022-08-31T18:35:17.691Z,0.47
2022-08-31T18:37:46.023Z,0.50
2022-08-31T18:40:32.607Z,0.50
2022-08-31T18:43:18.454Z,0.40
2022-08-31T18:45:50.236Z,0.40
2022-08-31T18:48:25.541Z,0.30
2022-08-31T18:50:59.816Z,0.52
2022-08-31T18:53:30.420Z,0.40
2022-08-31T18:56:06.028Z,0.20
2022-08-31T18:58:35.733Z,0.60
2022-08-31T19:01:04.448Z,0.40
2022-08-31T19:03:34.364Z,0.43
2022-08-31T19:06:02.956Z,0.35
2022-08-31T19:08:34.560Z,0.50
2022-08-31T19:11:03.549Z,0.32
2022-08-31T19:13:32.605Z,0.40
2022-08-31T19:16:14.817Z,0.30
2022-08-31T19:18:46.283Z,0.50
2022-08-31T19:21:17.278Z,0.55
2022-08-31T19:23:46.025Z,0.40
2022-08-31T19:26:20.468Z,0.55
2022-08-31T19:28:52.032Z,0.50
2022-08-31T19:31:21.565Z,0.55
2022-08-31T19:33:56.473Z,0.28
2022-08-31T19:36:27.747Z,0.43
2022-08-31T19:38:57.189Z,0.40
2022-08-31T19:41:26.931Z,0.73
2022-08-31T19:44:07.257Z,0.37
2022-08-31T19:46:37.729Z,0.50
2022-08-31T19:49:11.250Z,0.32
2022-08-31T19:51:41.802Z,0.40
2022-08-31T19:54:12.404Z,0.50
2022-08-31T19:56:44.071Z,0.47
2022-08-31T19:59:18.253Z,0.50
2022-08-31T20:01:47.990Z,0.65
2022-08-31T20:04:19.075Z,0.30
2022-08-31T20:06:49.130Z,0.50
2022-08-31T20:09:22.799Z,0.50
2022-08-31T20:11:51.946Z,0.47
2022-08-31T20:14:22.023Z,0.60
2022-08-31T20:16:51.367Z,0.30
2022-08-31T20:19:24.832Z,0.50
2022-08-31T20:21:55.017Z,0.47
2022-08-31T20:24:26.783Z,0.57
2022-08-31T20:27:00.906Z,0.50
2022-08-31T20:29:30.683Z,0.52
2022-08-31T20:32:01.726Z,0.57
2022-08-31T20:34:31.150Z,0.55
2022-08-31T20:37:01.085Z,0.40
2022-08-31T20:39:31.984Z,0.60
2022-08-31T20:42:00.634Z,0.50
2022-08-31T20:44:31.040Z,0.60
2022-08-31T20:47:19.339Z,0.50
2022-08-31T20:49:54.898Z,0.20
2022-08-31T20:52:25.397Z,0.50
2022-08-31T20:55:01.417Z,0.30
2022-08-31T20:57:32.831Z,0.40
2022-08-31T21:00:02.849Z,0.50
2022-08-31T21:02:33.288Z,0.55
2022-08-31T21:05:33.967Z,1.00
2022-08-31T21:07:52.290Z,0.47
2022-08-31T21:10:29.583Z,0.60
2022-08-31T21:13:05.158Z,0.70
2022-08-31T21:15:33.242Z,0.43
2022-08-31T21:18:01.519Z,0.43
2022-08-31T21:20:32.356Z,0.50
2022-08-31T21:23:00.355Z,0.40
2022-08-31T21:25:29.596Z,0.60
2022-08-31T21:27:57.863Z,0.60
2022-08-31T21:30:25.907Z,1.20
2022-08-31T21:32:53.804Z,0.82
2022-08-31T21:35:22.086Z,0.50
2022-08-31T21:37:51.370Z,0.50
2022-08-31T21:40:19.307Z,0.60
2022-08-31T21:42:49.436Z,0.60
2022-08-31T21:45:17.652Z,0.70
2022-08-31T21:47:45.615Z,0.62
2022-08-31T21:50:14.421Z,0.62
2022-08-31T21:52:42.392Z,0.32
2022-08-31T21:55:13.614Z,0.47
2022-08-31T21:57:43.284Z,0.60
2022-08-31T22:00:22.051Z,0.68
2022-08-31T22:02:50.947Z,0.45
2022-08-31T22:05:19.075Z,0.45
2022-08-31T22:07:47.062Z,0.40
2022-08-31T22:10:16.902Z,0.60
2022-08-31T22:12:44.815Z,0.40
2022-08-31T22:15:16.716Z,0.50
2022-08-31T22:18:05.943Z,0.50
2022-08-31T22:20:33.738Z,0.40
2022-08-31T22:23:03.057Z,0.70
2022-08-31T22:25:34.589Z,0.50
2022-08-31T22:28:06.000Z,0.60
2022-08-31T22:30:37.073Z,0.60
2022-08-31T22:33:05.742Z,0.75
2022-08-31T22:35:39.834Z,0.50
2022-08-31T22:38:09.103Z,0.47
2022-08-31T22:40:39.544Z,0.55
2022-08-31T22:43:09.606Z,0.40
2022-08-31T22:45:47.618Z,0.62
2022-08-31T22:48:16.940Z,0.40
2022-08-31T22:50:44.910Z,0.57
2022-08-31T22:53:12.949Z,0.50
2022-08-31T22:55:43.083Z,0.50
2022-08-31T22:58:12.432Z,0.45
2022-08-31T23:00:42.647Z,0.50
2022-08-31T23:03:14.814Z,0.32
2022-08-31T23:05:43.696Z,0.80
2022-08-31T23:08:13.795Z,0.50
2022-08-31T23:10:44.072Z,0.50
2022-08-31T23:13:12.329Z,0.60
2022-08-31T23:15:41.244Z,0.47
2022-08-31T23:18:09.947Z,0.65
2022-08-31T23:20:40.858Z,0.50
2022-08-31T23:23:08.751Z,0.60
2022-08-31T23:25:37.118Z,0.50
2022-08-31T23:28:06.643Z,0.60
2022-08-31T23:30:35.386Z,0.35
2022-08-31T23:33:03.298Z,0.30
2022-08-31T23:35:32.844Z,0.50
2022-08-31T23:38:01.687Z,0.55
2022-08-31T23:40:31.962Z,0.88
2022-08-31T23:43:02.237Z,0.43
2022-08-31T23:45:32.475Z,0.62
2022-08-31T23:48:01.441Z,0.60
2022-08-31T23:50:29.372Z,0.70
2022-08-31T23:52:57.401Z,0.30
2022-08-31T23:55:31.250Z,0.40
2022-08-31T23:57:59.325Z,0.50
